createdAt,value
2023-01-18T00:02:47.285Z,11.80
2023-01-18T00:06:49.323Z,11.87
2023-01-18T00:10:51.289Z,11.70
2023-01-18T00:14:53.274Z,12.90
2023-01-18T00:18:57.345Z,13.20
2023-01-18T00:23:00.843Z,13.13
2023-01-18T00:27:02.798Z,15.57
2023-01-18T00:31:12.571Z,16.67
2023-01-18T00:35:15.426Z,18.90
2023-01-18T00:39:17.568Z,18.50
2023-01-18T00:43:38.452Z,19.03
2023-01-18T00:47:40.385Z,20.23
2023-01-18T00:51:42.302Z,20.47
2023-01-18T00:55:44.219Z,21.23
2023-01-18T00:59:46.807Z,20.47
2023-01-18T01:04:07.309Z,21.30
2023-01-18T01:08:17.376Z,22.57
2023-01-18T01:12:37.724Z,21.67
2023-01-18T01:16:58.066Z,20.93
2023-01-18T01:21:22.411Z,17.73
2023-01-18T01:25:42.744Z,19.37
2023-01-18T01:29:44.757Z,16.63
2023-01-18T01:33:49.143Z,15.17
2023-01-18T01:37:51.084Z,13.37
2023-01-18T01:41:53.122Z,12.97
2023-01-18T01:45:55.099Z,12.47
2023-01-18T01:50:02.161Z,13.00
2023-01-18T01:54:11.131Z,13.30
2023-01-18T01:58:20.154Z,12.47
2023-01-18T02:02:22.184Z,12.43
2023-01-18T02:06:32.338Z,11.83
2023-01-18T02:10:34.274Z,11.63
2023-01-18T02:14:36.755Z,11.50
2023-01-18T02:19:00.818Z,11.87
2023-01-18T02:23:15.656Z,12.83
2023-01-18T02:27:27.935Z,13.43
2023-01-18T02:31:38.397Z,13.63
2023-01-18T02:35:40.316Z,13.80
2023-01-18T02:39:47.509Z,14.07
2023-01-18T02:44:12.282Z,14.40
2023-01-18T02:48:15.036Z,13.80
2023-01-18T02:52:43.283Z,13.67
2023-01-18T02:56:49.464Z,14.10
2023-01-18T03:01:22.444Z,13.13
2023-01-18T03:05:25.595Z,13.33
2023-01-18T03:09:28.682Z,13.40
2023-01-18T03:13:45.227Z,12.93
2023-01-18T03:17:57.596Z,13.43
2023-01-18T03:22:01.205Z,11.80
2023-01-18T03:26:06.409Z,12.27
2023-01-18T03:30:27.674Z,12.37
2023-01-18T03:34:38.395Z,11.67
2023-01-18T03:38:43.142Z,11.00
2023-01-18T03:42:48.646Z,12.07
2023-01-18T03:46:50.731Z,11.97
2023-01-18T03:50:54.049Z,11.70
2023-01-18T03:54:59.978Z,11.33
2023-01-18T03:59:04.580Z,10.50
2023-01-18T04:03:07.445Z,10.33
2023-01-18T04:07:09.598Z,10.07
2023-01-18T04:11:11.539Z,9.37
2023-01-18T04:15:13.566Z,9.20
2023-01-18T04:19:15.505Z,10.83
2023-01-18T04:23:17.426Z,9.63
2023-01-18T04:27:19.542Z,9.03
2023-01-18T04:31:22.114Z,10.10
2023-01-18T04:35:24.096Z,9.73
2023-01-18T04:39:26.177Z,10.37
2023-01-18T04:43:28.078Z,10.00
2023-01-18T04:47:30.086Z,11.13
2023-01-18T04:51:32.344Z,11.03
2023-01-18T04:55:34.278Z,9.20
2023-01-18T04:59:39.203Z,9.43
2023-01-18T05:03:41.476Z,10.20
2023-01-18T05:07:43.433Z,10.03
2023-01-18T05:11:45.382Z,9.37
2023-01-18T05:15:48.096Z,9.77
2023-01-18T05:19:51.580Z,9.77
2023-01-18T05:23:54.730Z,10.23
2023-01-18T05:27:56.619Z,9.20
2023-01-18T05:31:58.500Z,9.93
2023-01-18T05:36:00.403Z,9.23
2023-01-18T05:40:02.297Z,9.33
2023-01-18T05:44:04.304Z,9.73
2023-01-18T05:48:06.317Z,10.23
2023-01-18T05:52:08.471Z,9.87
2023-01-18T05:56:10.359Z,9.50
2023-01-18T06:00:12.515Z,12.10
2023-01-18T06:04:14.535Z,11.90
2023-01-18T06:08:16.577Z,11.53
2023-01-18T06:12:18.569Z,11.37
2023-01-18T06:16:20.671Z,12.20
2023-01-18T06:20:22.652Z,10.57
2023-01-18T06:24:24.567Z,10.20
2023-01-18T06:28:29.074Z,9.87
2023-01-18T06:32:32.653Z,14.80
2023-01-18T06:36:35.734Z,10.13
2023-01-18T06:40:37.908Z,10.70
2023-01-18T06:44:41.024Z,9.50
2023-01-18T06:48:42.906Z,10.47
2023-01-18T06:52:45.076Z,9.47
2023-01-18T06:56:48.275Z,10.50
2023-01-18T07:00:50.352Z,10.07
2023-01-18T07:04:52.401Z,11.10
2023-01-18T07:08:54.360Z,9.97
2023-01-18T07:12:56.549Z,9.20
2023-01-18T07:16:58.710Z,10.00
2023-01-18T07:21:08.410Z,9.17
2023-01-18T07:25:13.424Z,7.97
2023-01-18T07:29:15.666Z,5.97
2023-01-18T07:33:17.575Z,5.57
2023-01-18T07:37:19.494Z,4.87
2023-01-18T07:41:23.156Z,4.73
2023-01-18T07:45:26.536Z,4.57
2023-01-18T07:49:28.409Z,3.97
2023-01-18T07:53:32.511Z,4.97
2023-01-18T07:57:34.521Z,5.17
2023-01-18T08:01:36.524Z,5.10
2023-01-18T08:05:38.678Z,4.43
2023-01-18T08:09:40.612Z,5.30
2023-01-18T08:13:42.823Z,5.07
2023-01-18T08:17:44.708Z,4.80
2023-01-18T08:21:47.679Z,4.90
2023-01-18T08:25:49.901Z,4.50
2023-01-18T08:29:51.859Z,4.10
2023-01-18T08:33:54.149Z,3.80
2023-01-18T08:37:56.539Z,3.80
2023-01-18T08:41:58.522Z,4.40
2023-01-18T08:46:00.715Z,3.90
2023-01-18T08:50:02.656Z,3.53
2023-01-18T08:54:06.599Z,3.43
2023-01-18T08:58:08.531Z,3.90
2023-01-18T09:02:11.524Z,4.03
2023-01-18T09:06:13.553Z,3.30
2023-01-18T09:10:15.940Z,3.40
2023-01-18T09:14:18.152Z,2.80
2023-01-18T09:18:20.110Z,3.23
2023-01-18T09:22:24.155Z,3.00
2023-01-18T09:26:27.921Z,2.97
2023-01-18T09:30:30.849Z,3.07
2023-01-18T09:34:32.791Z,2.57
2023-01-18T09:38:36.434Z,3.00
2023-01-18T09:42:44.526Z,4.97
2023-01-18T09:46:54.132Z,6.90
2023-01-18T09:51:00.564Z,3.90
2023-01-18T09:55:15.118Z,51.53
2023-01-18T09:59:35.709Z,13.40
2023-01-18T10:03:53.374Z,2.83
2023-01-18T10:08:04.305Z,2.93
2023-01-18T10:12:32.085Z,3.60
2023-01-18T10:16:37.830Z,3.23
2023-01-18T10:21:01.496Z,3.30
2023-01-18T10:25:29.793Z,3.30
2023-01-18T10:29:52.607Z,2.80
2023-01-18T10:33:57.811Z,2.80
2023-01-18T10:38:04.507Z,3.30
2023-01-18T10:42:18.044Z,3.07
2023-01-18T10:46:20.717Z,3.37
2023-01-18T10:50:37.385Z,3.47
2023-01-18T10:54:40.431Z,4.40
2023-01-18T10:58:50.663Z,4.00
2023-01-18T11:02:56.000Z,4.23
2023-01-18T11:07:00.692Z,4.83
2023-01-18T11:11:04.466Z,4.33
2023-01-18T11:15:15.534Z,4.83
2023-01-18T11:19:19.877Z,4.80
2023-01-18T11:23:26.116Z,4.73
2023-01-18T11:27:28.210Z,4.50
2023-01-18T11:31:43.346Z,5.10
2023-01-18T11:35:45.658Z,4.43
2023-01-18T11:39:47.727Z,4.70
2023-01-18T11:44:15.898Z,4.70
2023-01-18T11:48:23.700Z,4.40
2023-01-18T11:52:51.265Z,4.10
2023-01-18T11:56:56.167Z,3.80
2023-01-18T12:01:13.267Z,3.73
2023-01-18T12:05:36.745Z,5.40
2023-01-18T12:10:00.510Z,4.30
2023-01-18T12:14:12.705Z,3.93
2023-01-18T12:18:51.617Z,4.23
2023-01-18T12:23:11.847Z,4.20
2023-01-18T12:27:50.305Z,4.40
2023-01-18T12:32:19.000Z,7.50
2023-01-18T12:36:46.060Z,4.60
2023-01-18T12:41:20.505Z,3.63
2023-01-18T12:45:34.127Z,4.10
2023-01-18T12:49:41.806Z,3.47
2023-01-18T12:53:49.311Z,3.67
2023-01-18T12:57:55.440Z,3.53
2023-01-18T13:02:11.151Z,4.40
2023-01-18T13:06:14.537Z,3.73
2023-01-18T13:10:21.480Z,4.40
2023-01-18T13:14:44.192Z,3.33
2023-01-18T13:19:06.068Z,3.50
2023-01-18T13:23:30.914Z,5.40
2023-01-18T13:27:33.307Z,4.87
2023-01-18T13:31:35.713Z,4.37
2023-01-18T13:35:38.428Z,3.80
2023-01-18T13:39:46.955Z,5.37
2023-01-18T13:43:51.827Z,13.23
2023-01-18T13:48:00.069Z,7.13
2023-01-18T13:52:04.456Z,3.90
2023-01-18T13:56:08.731Z,8.87
2023-01-18T14:00:24.548Z,4.40
2023-01-18T14:04:35.673Z,4.60
2023-01-18T14:08:47.657Z,4.00
2023-01-18T14:12:52.320Z,3.53
2023-01-18T14:17:11.862Z,4.40
2023-01-18T14:21:26.108Z,4.60
2023-01-18T14:25:54.378Z,4.60
2023-01-18T14:30:34.820Z,4.77
2023-01-18T14:34:38.161Z,4.50
2023-01-18T14:38:41.935Z,4.40
2023-01-18T14:42:52.265Z,4.57
2023-01-18T14:46:57.221Z,5.30
2023-01-18T14:50:59.834Z,5.97
2023-01-18T14:55:02.614Z,5.40
2023-01-18T14:59:23.387Z,5.43
2023-01-18T15:03:30.385Z,5.70
2023-01-18T15:07:34.453Z,5.23
2023-01-18T15:11:38.019Z,5.47
2023-01-18T15:15:42.247Z,5.57
2023-01-18T15:19:46.912Z,12.37
2023-01-18T15:23:52.297Z,6.53
2023-01-18T15:27:54.734Z,6.33
2023-01-18T15:31:59.273Z,5.50
2023-01-18T15:36:01.863Z,7.83
2023-01-18T15:40:12.943Z,8.77
2023-01-18T15:44:48.161Z,6.60
2023-01-18T15:48:57.941Z,7.60
2023-01-18T15:53:06.253Z,6.10
2023-01-18T15:57:18.093Z,12.47
2023-01-18T16:01:31.714Z,7.20
2023-01-18T16:05:33.969Z,7.20
2023-01-18T16:09:40.922Z,5.80
2023-01-18T16:13:42.958Z,7.77
2023-01-18T16:17:45.012Z,5.30
2023-01-18T16:21:54.512Z,5.83
2023-01-18T16:26:04.252Z,7.77
2023-01-18T16:30:19.456Z,7.40
2023-01-18T16:34:26.332Z,9.27
2023-01-18T16:38:28.269Z,6.43
2023-01-18T16:42:38.037Z,7.10
2023-01-18T16:46:40.644Z,5.17
2023-01-18T16:50:42.737Z,8.17
2023-01-18T16:54:45.974Z,6.17
2023-01-18T16:58:48.844Z,6.07
2023-01-18T17:02:51.822Z,6.90
2023-01-18T17:06:53.751Z,7.50
2023-01-18T17:10:55.956Z,5.50
2023-01-18T17:14:57.904Z,7.60
2023-01-18T17:18:59.869Z,7.87
2023-01-18T17:23:02.145Z,6.40
2023-01-18T17:27:04.497Z,6.53
2023-01-18T17:31:06.579Z,11.57
2023-01-18T17:35:10.444Z,16.13
2023-01-18T17:39:13.019Z,6.00
2023-01-18T17:43:28.518Z,9.07
2023-01-18T17:47:35.720Z,6.30
2023-01-18T17:51:38.562Z,6.13
2023-01-18T17:55:40.712Z,5.63
2023-01-18T17:59:42.832Z,5.70
2023-01-18T18:03:50.189Z,5.90
2023-01-18T18:07:52.178Z,5.33
2023-01-18T18:11:54.130Z,5.70
2023-01-18T18:15:56.628Z,8.33
2023-01-18T18:19:58.924Z,7.43
2023-01-18T18:24:01.194Z,12.33
2023-01-18T18:28:03.641Z,7.07
2023-01-18T18:32:07.009Z,7.37
2023-01-18T18:36:09.038Z,5.33
2023-01-18T18:40:11.626Z,6.57
2023-01-18T18:44:14.106Z,16.17
2023-01-18T18:48:16.055Z,7.73
2023-01-18T18:52:17.824Z,6.47
2023-01-18T18:56:19.685Z,25.27
2023-01-18T19:00:22.112Z,11.07
2023-01-18T19:04:24.399Z,5.60
2023-01-18T19:08:26.290Z,5.33
2023-01-18T19:12:28.153Z,5.87
2023-01-18T19:16:30.023Z,8.47
2023-01-18T19:20:33.204Z,7.10
2023-01-18T19:24:36.786Z,7.83
2023-01-18T19:28:38.776Z,18.40
2023-01-18T19:32:40.783Z,8.07
2023-01-18T19:36:42.753Z,10.50
2023-01-18T19:40:44.722Z,10.03
2023-01-18T19:44:46.711Z,8.80
2023-01-18T19:48:48.757Z,9.13
2023-01-18T19:52:51.342Z,8.20
2023-01-18T19:56:53.291Z,7.30
2023-01-18T20:00:55.331Z,8.10
2023-01-18T20:04:57.826Z,8.07
2023-01-18T20:08:59.744Z,12.47
2023-01-18T20:13:01.944Z,8.20
2023-01-18T20:17:04.132Z,7.97
2023-01-18T20:21:06.605Z,8.73
2023-01-18T20:25:10.354Z,8.07
2023-01-18T20:29:13.163Z,8.53
2023-01-18T20:33:15.444Z,9.83
2023-01-18T20:37:17.418Z,9.70
2023-01-18T20:41:19.466Z,8.70
2023-01-18T20:45:21.391Z,9.57
2023-01-18T20:49:33.188Z,8.80
2023-01-18T20:53:39.433Z,8.93
2023-01-18T20:57:41.711Z,7.97
2023-01-18T21:01:43.737Z,8.17
2023-01-18T21:05:46.246Z,8.90
2023-01-18T21:09:48.225Z,9.20
2023-01-18T21:13:50.799Z,7.67
2023-01-18T21:17:52.796Z,9.10
2023-01-18T21:21:54.792Z,10.37
2023-01-18T21:25:58.516Z,9.00
2023-01-18T21:30:00.466Z,8.67
2023-01-18T21:34:02.492Z,10.03
2023-01-18T21:38:04.806Z,9.60
2023-01-18T21:42:25.111Z,9.57
2023-01-18T21:46:26.905Z,8.07
2023-01-18T21:50:47.090Z,8.43
2023-01-18T21:54:48.829Z,7.10
2023-01-18T21:58:53.620Z,6.87
2023-01-18T22:02:55.542Z,7.27
2023-01-18T22:06:59.255Z,6.63
2023-01-18T22:11:01.325Z,6.87
2023-01-18T22:15:04.702Z,6.63
2023-01-18T22:19:06.629Z,6.33
2023-01-18T22:23:08.643Z,6.70
2023-01-18T22:27:10.473Z,6.60
2023-01-18T22:31:13.316Z,6.33
2023-01-18T22:35:15.622Z,5.93
2023-01-18T22:39:17.411Z,6.07
2023-01-18T22:43:19.284Z,6.67
2023-01-18T22:47:21.216Z,6.23
2023-01-18T22:51:24.035Z,6.00
2023-01-18T22:55:25.894Z,5.80
2023-01-18T22:59:27.660Z,6.27
2023-01-18T23:03:30.908Z,6.13
2023-01-18T23:07:32.800Z,6.60
2023-01-18T23:11:34.556Z,6.63
2023-01-18T23:16:01.439Z,6.03
2023-01-18T23:20:03.805Z,6.03
2023-01-18T23:24:05.835Z,5.47
2023-01-18T23:28:07.612Z,5.60
2023-01-18T23:32:09.496Z,6.40
2023-01-18T23:36:12.262Z,6.30
2023-01-18T23:40:32.983Z,6.73
2023-01-18T23:44:53.287Z,6.97
2023-01-18T23:49:13.853Z,7.10
2023-01-18T23:53:34.220Z,6.53
2023-01-18T23:57:37.193Z,7.50
